Time;durP1;ratioP1;P1;durP2;ratioP2;P2;SDS_P1;SDS_P2;PMS_P1;PMS_P2;Temp;Humidity;BMP_temperature;BMP_pressure;BME280_temperature;BME280_humidity;BME280_pressure;Samples;Min_cycle;Max_cycle;Signal;HPM_P1;HPM_P2
2023/09/08 00:02:05;;;;;;;9.30;7.18;;;14.50;99.90;;;;;;5009808;28;20022;-63
2023/09/08 00:04:32;;;;;;;10.95;6.78;;;14.50;99.90;;;;;;5009297;28;20111;-64
2023/09/08 00:06:58;;;;;;;11.57;7.25;;;14.50;99.90;;;;;;5015847;28;20006;-64
2023/09/08 00:09:23;;;;;;;9.38;6.63;;;14.40;99.90;;;;;;5012529;28;20520;-64
2023/09/08 00:11:49;;;;;;;9.25;6.57;;;14.40;99.90;;;;;;5015543;28;20037;-64
2023/09/08 00:14:15;;;;;;;10.20;7.00;;;14.40;99.90;;;;;;5012074;28;20429;-64
2023/09/08 00:16:42;;;;;;;6.95;6.22;;;14.40;99.90;;;;;;5017343;28;20065;-64
2023/09/08 00:19:08;;;;;;;8.63;6.38;;;14.40;99.90;;;;;;5021303;28;20030;-64
2023/09/08 00:21:33;;;;;;;10.77;6.38;;;14.30;99.90;;;;;;5015063;28;20096;-64
2023/09/08 00:24:00;;;;;;;7.75;6.28;;;14.30;99.90;;;;;;5014595;28;20049;-64
2023/09/08 00:26:26;;;;;;;9.43;6.78;;;14.30;99.90;;;;;;5014700;28;20022;-64
2023/09/08 00:28:51;;;;;;;9.45;6.97;;;14.30;99.90;;;;;;5014976;28;20075;-64
2023/09/08 00:31:17;;;;;;;9.45;6.63;;;14.20;99.90;;;;;;5016367;28;20045;-70
2023/09/08 00:33:43;;;;;;;8.88;6.88;;;14.20;99.90;;;;;;5014445;28;20099;-70
2023/09/08 00:36:09;;;;;;;7.55;6.75;;;14.20;99.90;;;;;;5019421;28;20092;-70
2023/09/08 00:38:35;;;;;;;7.93;6.63;;;14.20;99.90;;;;;;5017260;28;20029;-70
2023/09/08 00:41:00;;;;;;;13.20;6.90;;;14.10;99.90;;;;;;5011556;28;20399;-70
2023/09/08 00:43:26;;;;;;;8.32;6.32;;;14.10;99.90;;;;;;5010928;28;20057;-71
2023/09/08 00:45:53;;;;;;;9.57;6.95;;;14.10;99.90;;;;;;5014782;28;20363;-69
2023/09/08 00:48:19;;;;;;;11.57;7.80;;;14.10;99.90;;;;;;5010768;28;20022;-70
2023/09/08 00:50:45;;;;;;;10.57;7.30;;;14.10;99.90;;;;;;5011926;28;20018;-71
2023/09/08 00:53:11;;;;;;;12.05;7.90;;;14.10;99.90;;;;;;5015239;28;20029;-70
2023/09/08 00:55:37;;;;;;;8.77;6.93;;;14.10;99.90;;;;;;5014538;28;20603;-70
2023/09/08 00:58:03;;;;;;;9.48;7.72;;;14.10;99.90;;;;;;5009378;28;20022;-70
2023/09/08 01:00:28;;;;;;;10.45;7.63;;;14.10;99.90;;;;;;5011914;28;20212;-70
2023/09/08 01:02:54;;;;;;;9.75;6.60;;;14.00;99.90;;;;;;5017854;28;20025;-70
2023/09/08 01:05:20;;;;;;;8.63;6.90;;;14.00;99.90;;;;;;5011980;28;20032;-70
2023/09/08 01:07:46;;;;;;;7.78;6.40;;;14.00;99.90;;;;;;5013120;28;20560;-71
2023/09/08 01:10:13;;;;;;;9.35;7.05;;;14.00;99.90;;;;;;5014922;28;20159;-70
2023/09/08 01:12:39;;;;;;;10.27;6.88;;;13.90;99.90;;;;;;5011896;28;20490;-70
2023/09/08 01:15:06;;;;;;;10.13;8.02;;;13.90;99.90;;;;;;5014328;28;20022;-70
2023/09/08 01:17:31;;;;;;;7.25;5.75;;;13.90;99.90;;;;;;5017114;28;20033;-69
2023/09/08 01:20:01;;;;;;;8.40;6.18;;;13.90;99.90;;;;;;5012396;28;20112;-71
2023/09/08 01:22:55;;;;;;;8.32;7.03;;;13.90;99.90;;;;;;5017147;28;20037;-71
2023/09/08 01:25:25;;;;;;;10.32;7.07;;;13.90;99.90;;;;;;5019279;28;20493;-71
2023/09/08 01:27:53;;;;;;;9.63;6.93;;;13.80;99.90;;;;;;5013222;28;20109;-71
2023/09/08 01:30:21;;;;;;;8.07;6.60;;;13.80;99.90;;;;;;5019488;28;20069;-69
2023/09/08 01:32:46;;;;;;;9.10;6.88;;;13.80;99.90;;;;;;5014404;28;20045;-70
2023/09/08 01:35:13;;;;;;;11.68;7.47;;;13.80;99.90;;;;;;5017914;28;20520;-70
2023/09/08 01:37:48;;;;;;;10.00;6.72;;;13.70;99.90;;;;;;5015382;28;20034;-69
2023/09/08 01:40:14;;;;;;;7.47;6.57;;;13.70;99.90;;;;;;5013523;28;20025;-70
2023/09/08 01:42:40;;;;;;;12.02;7.68;;;13.70;99.90;;;;;;5011732;28;20525;-70
2023/09/08 01:45:07;;;;;;;8.65;6.78;;;13.70;99.90;;;;;;5016014;28;20025;-70
2023/09/08 01:47:33;;;;;;;9.60;6.07;;;13.60;99.90;;;;;;5013616;28;20120;-70
2023/09/08 01:49:58;;;;;;;8.30;6.80;;;13.60;99.90;;;;;;5012704;28;20057;-70
2023/09/08 01:52:24;;;;;;;11.95;6.85;;;13.60;99.90;;;;;;5014575;28;20060;-70
2023/09/08 01:54:50;;;;;;;8.48;6.95;;;13.60;99.90;;;;;;5006749;28;20037;-69
2023/09/08 01:57:15;;;;;;;9.23;7.38;;;13.60;99.90;;;;;;5017631;28;20113;-71
2023/09/08 01:59:41;;;;;;;10.98;7.00;;;13.50;99.90;;;;;;5016089;28;20511;-70
2023/09/08 02:02:06;;;;;;;11.80;7.72;;;13.50;99.90;;;;;;5013002;28;20022;-70
2023/09/08 02:04:32;;;;;;;14.93;7.70;;;13.50;99.90;;;;;;5018632;28;20432;-70
2023/09/08 02:06:58;;;;;;;7.68;6.68;;;13.40;99.90;;;;;;5015062;28;20017;-70
2023/09/08 02:09:39;;;;;;;11.88;7.38;;;13.50;99.90;;;;;;5017385;28;20030;-69
2023/09/08 02:12:05;;;;;;;9.23;7.82;;;13.50;99.90;;;;;;5014996;28;20026;-69
2023/09/08 02:14:30;;;;;;;9.40;6.90;;;13.40;99.90;;;;;;5019774;28;20030;-71
2023/09/08 02:16:56;;;;;;;10.13;7.95;;;13.40;99.90;;;;;;5016899;28;20497;-71
2023/09/08 02:19:22;;;;;;;12.32;8.77;;;13.40;99.90;;;;;;5013551;28;20167;-70
2023/09/08 02:21:48;;;;;;;12.80;8.32;;;13.40;99.90;;;;;;5018576;28;20097;-69
2023/09/08 02:24:13;;;;;;;15.82;9.02;;;13.40;99.90;;;;;;5016934;28;20641;-70
2023/09/08 02:26:41;;;;;;;10.05;8.57;;;13.40;99.90;;;;;;5015545;28;20052;-70
2023/09/08 02:29:07;;;;;;;10.98;9.07;;;13.40;99.90;;;;;;5016975;28;20772;-70
2023/09/08 02:31:33;;;;;;;15.70;8.18;;;13.40;99.90;;;;;;5021801;28;20052;-70
2023/09/08 02:33:58;;;;;;;12.60;8.25;;;13.30;99.90;;;;;;5019415;28;20021;-71
2023/09/08 02:36:27;;;;;;;9.73;7.78;;;13.30;99.90;;;;;;5018151;28;20029;-70
2023/09/08 02:38:53;;;;;;;12.25;9.20;;;13.30;99.90;;;;;;5018505;28;20017;-69
2023/09/08 02:41:19;;;;;;;11.93;8.70;;;13.30;99.90;;;;;;5020534;28;20489;-71
2023/09/08 02:43:45;;;;;;;11.77;9.20;;;13.40;99.90;;;;;;5018572;28;20033;-70
2023/09/08 02:46:10;;;;;;;11.25;8.40;;;13.30;99.90;;;;;;5018459;28;20080;-70
2023/09/08 02:48:36;;;;;;;13.52;8.50;;;13.30;99.90;;;;;;5018422;28;20021;-70
2023/09/08 02:51:01;;;;;;;11.43;9.00;;;13.30;99.90;;;;;;5017682;28;20432;-70
2023/09/08 02:53:28;;;;;;;13.05;9.23;;;13.30;99.90;;;;;;5015112;28;20033;-69
2023/09/08 02:55:57;;;;;;;12.55;9.00;;;13.30;99.90;;;;;;5016391;28;20056;-70
2023/09/08 02:58:24;;;;;;;12.15;9.02;;;13.40;99.90;;;;;;5016204;28;20037;-71
2023/09/08 03:00:51;;;;;;;11.73;8.85;;;13.50;99.90;;;;;;5017101;28;20048;-70
2023/09/08 03:03:17;;;;;;;11.45;9.00;;;13.40;99.90;;;;;;5015100;28;20021;-70
2023/09/08 03:05:43;;;;;;;13.15;9.05;;;13.40;99.90;;;;;;5017227;28;20105;-71
2023/09/08 03:08:08;;;;;;;14.68;10.05;;;13.40;99.90;;;;;;5021126;28;20121;-70
2023/09/08 03:10:34;;;;;;;10.30;8.45;;;13.30;99.90;;;;;;5017339;28;20033;-70
2023/09/08 03:13:00;;;;;;;11.35;9.13;;;13.30;99.90;;;;;;5022375;28;20032;-71
2023/09/08 03:15:27;;;;;;;15.80;9.55;;;13.30;99.90;;;;;;5007375;28;20654;-70
2023/09/08 03:17:54;;;;;;;11.07;9.20;;;13.30;99.90;;;;;;5021561;28;20022;-70
2023/09/08 03:20:20;;;;;;;15.07;9.23;;;13.30;99.90;;;;;;5015517;28;20091;-68
2023/09/08 03:22:45;;;;;;;12.77;8.82;;;13.30;99.90;;;;;;5011082;28;20528;-70
2023/09/08 03:25:10;;;;;;;11.13;8.55;;;13.30;99.90;;;;;;5018532;28;20033;-70
2023/09/08 03:27:36;;;;;;;11.00;9.02;;;13.20;99.90;;;;;;5018722;28;20025;-70
2023/09/08 03:30:03;;;;;;;12.93;8.60;;;13.20;99.90;;;;;;5015989;28;20080;-70
2023/09/08 03:32:28;;;;;;;11.70;9.43;;;13.30;99.90;;;;;;5017004;28;20091;-69
2023/09/08 03:34:54;;;;;;;10.13;8.73;;;13.30;99.90;;;;;;5016401;28;20034;-71
2023/09/08 03:37:19;;;;;;;9.25;7.53;;;13.20;99.90;;;;;;5015763;28;20473;-70
2023/09/08 03:39:45;;;;;;;12.65;9.45;;;13.20;99.90;;;;;;5019760;28;20165;-69
2023/09/08 03:42:10;;;;;;;12.13;8.90;;;13.20;99.90;;;;;;5016704;28;20561;-69
2023/09/08 03:44:36;;;;;;;10.90;8.57;;;13.20;99.90;;;;;;5014813;28;20035;-70
2023/09/08 03:47:02;;;;;;;12.05;8.38;;;13.20;99.90;;;;;;5017391;28;20026;-72
2023/09/08 03:49:28;;;;;;;13.15;9.32;;;13.20;99.90;;;;;;5015067;28;20029;-70
2023/09/08 03:51:53;;;;;;;15.35;9.68;;;13.10;99.90;;;;;;5015369;28;20029;-71
2023/09/08 03:54:19;;;;;;;11.75;8.63;;;13.10;99.90;;;;;;5015963;28;20115;-71
2023/09/08 03:56:44;;;;;;;10.35;8.45;;;13.00;99.90;;;;;;5014187;28;20041;-69
2023/09/08 03:59:10;;;;;;;11.60;8.00;;;13.00;99.90;;;;;;5019023;28;20025;-70
2023/09/08 04:01:35;;;;;;;13.15;9.45;;;13.00;99.90;;;;;;5014699;28;20053;-70
2023/09/08 04:04:01;;;;;;;9.27;8.27;;;13.00;99.90;;;;;;5016433;28;20103;-70
2023/09/08 04:06:28;;;;;;;12.38;8.95;;;12.90;99.90;;;;;;5012848;28;20394;-70
2023/09/08 04:08:53;;;;;;;14.15;9.23;;;13.00;99.90;;;;;;5023437;28;20017;-69
2023/09/08 04:11:19;;;;;;;13.55;9.98;;;12.90;99.90;;;;;;5014856;28;20040;-69
2023/09/08 04:13:44;;;;;;;14.45;9.80;;;12.90;99.90;;;;;;5014198;28;20471;-70
2023/09/08 04:16:10;;;;;;;14.43;10.50;;;12.90;99.90;;;;;;5017512;28;20043;-70
2023/09/08 04:18:35;;;;;;;12.40;9.02;;;12.80;99.90;;;;;;5012957;28;20055;-70
2023/09/08 04:21:01;;;;;;;13.85;10.65;;;12.80;99.90;;;;;;5018874;28;20029;-71
2023/09/08 04:23:26;;;;;;;13.18;9.50;;;12.80;99.90;;;;;;5021415;28;20512;-71
2023/09/08 04:25:52;;;;;;;16.80;10.30;;;12.90;99.90;;;;;;5030023;28;20013;-72
2023/09/08 04:28:17;;;;;;;17.50;10.77;;;12.90;99.90;;;;;;5019129;28;20030;-70
2023/09/08 04:30:43;;;;;;;12.93;10.65;;;12.90;99.90;;;;;;5017094;28;20478;-71
2023/09/08 04:33:08;;;;;;;14.10;10.48;;;13.00;99.90;;;;;;5024432;28;20048;-73
2023/09/08 04:35:34;;;;;;;13.38;10.85;;;13.00;99.90;;;;;;5023605;28;20509;-71
2023/09/08 04:37:59;;;;;;;15.25;11.13;;;13.10;99.90;;;;;;5016458;28;20021;-72
2023/09/08 04:40:24;;;;;;;18.08;12.57;;;13.20;99.90;;;;;;5011486;28;20117;-71
2023/09/08 04:42:50;;;;;;;14.13;11.80;;;13.30;99.90;;;;;;5014171;28;20034;-74
2023/09/08 04:45:16;;;;;;;18.30;12.15;;;13.40;99.90;;;;;;5020271;28;20105;-71
2023/09/08 04:47:41;;;;;;;14.80;11.13;;;13.40;99.90;;;;;;5022925;28;20044;-72
2023/09/08 04:50:07;;;;;;;17.63;11.55;;;13.50;99.90;;;;;;5024125;28;20696;-72
2023/09/08 04:52:33;;;;;;;16.77;12.98;;;13.50;99.90;;;;;;5022979;28;20067;-71
2023/09/08 04:54:58;;;;;;;17.48;11.82;;;13.60;99.90;;;;;;5018050;28;20030;-72
2023/09/08 04:57:24;;;;;;;16.90;13.13;;;13.70;99.90;;;;;;5012011;28;20068;-71
2023/09/08 04:59:49;;;;;;;17.27;13.48;;;13.70;99.90;;;;;;5017842;28;20041;-71
2023/09/08 05:02:15;;;;;;;18.05;13.50;;;13.80;99.90;;;;;;5007416;28;20462;-72
2023/09/08 05:04:40;;;;;;;18.67;12.70;;;13.80;99.90;;;;;;5012548;28;20038;-71
2023/09/08 05:07:06;;;;;;;20.83;12.35;;;13.80;99.90;;;;;;5008781;28;20017;-71
2023/09/08 05:09:33;;;;;;;16.27;12.98;;;13.90;99.90;;;;;;5015997;28;20026;-71
2023/09/08 05:11:59;;;;;;;15.45;13.02;;;14.00;99.90;;;;;;5013623;28;20029;-71
2023/09/08 05:14:25;;;;;;;15.73;13.05;;;14.00;99.90;;;;;;5014197;28;20025;-70
2023/09/08 05:16:55;;;;;;;23.92;14.73;;;14.10;99.90;;;;;;5019624;28;20033;-71
2023/09/08 05:19:21;;;;;;;21.05;13.75;;;14.20;99.90;;;;;;5017176;28;20022;-70
2023/09/08 05:21:46;;;;;;;16.08;12.70;;;14.30;99.90;;;;;;5019486;28;20036;-71
2023/09/08 05:24:12;;;;;;;16.85;13.18;;;14.40;99.90;;;;;;5007763;28;20030;-63
2023/09/08 05:26:38;;;;;;;17.23;11.82;;;14.80;99.90;;;;;;5018471;28;20176;-63
2023/09/08 05:29:04;;;;;;;13.48;10.45;;;15.70;99.90;;;;;;5015680;28;20025;-63
2023/09/08 05:31:29;;;;;;;12.52;9.60;;;16.60;99.90;;;;;;5020422;28;20037;-64
2023/09/08 05:33:55;;;;;;;14.18;9.40;;;17.40;99.90;;;;;;5023627;28;20104;-64
2023/09/08 05:36:20;;;;;;;14.57;8.85;;;18.30;99.90;;;;;;5012496;28;20731;-63
2023/09/08 05:38:46;;;;;;;9.95;8.70;;;19.00;99.90;;;;;;5017377;28;20032;-63
2023/09/08 05:41:11;;;;;;;11.13;8.55;;;19.70;95.80;;;;;;5023239;28;20091;-63
2023/09/08 05:43:37;;;;;;;13.00;8.13;;;20.30;90.40;;;;;;5028868;28;20029;-64
2023/09/08 05:46:04;;;;;;;10.55;8.68;;;20.90;92.40;;;;;;5017989;28;20489;-63
2023/09/08 05:48:29;;;;;;;10.95;8.07;;;21.50;85.00;;;;;;5022492;28;20103;-63
2023/09/08 05:50:54;;;;;;;9.70;7.60;;;22.10;87.40;;;;;;5015002;28;20052;-64
2023/09/08 05:53:20;;;;;;;8.60;6.78;;;22.70;84.90;;;;;;5021385;28;20033;-63
2023/09/08 05:55:45;;;;;;;8.45;6.68;;;23.00;82.80;;;;;;5016511;28;20021;-63
2023/09/08 05:58:11;;;;;;;8.57;7.20;;;23.80;81.00;;;;;;5020849;28;20033;-62
2023/09/08 06:00:36;;;;;;;7.47;6.38;;;24.10;77.50;;;;;;5012872;28;20525;-64
2023/09/08 06:03:02;;;;;;;8.30;6.45;;;24.70;76.20;;;;;;5018153;28;20026;-63
2023/09/08 06:05:28;;;;;;;10.85;7.30;;;25.20;70.70;;;;;;5016347;28;20026;-64
2023/09/08 06:07:53;;;;;;;7.57;6.30;;;25.50;67.40;;;;;;5014089;28;20029;-65
2023/09/08 06:10:19;;;;;;;7.30;6.18;;;25.80;69.00;;;;;;5016071;28;20061;-63
2023/09/08 06:12:44;;;;;;;9.82;6.68;;;26.00;65.70;;;;;;5014851;28;20108;-64
2023/09/08 06:15:10;;;;;;;6.85;5.80;;;26.30;64.60;;;;;;5015620;28;20026;-63
2023/09/08 06:17:35;;;;;;;6.57;5.78;;;26.50;62.60;;;;;;5015572;28;20057;-64
2023/09/08 06:20:01;;;;;;;9.60;6.18;;;26.80;61.10;;;;;;5015373;28;20026;-64
2023/09/08 06:22:27;;;;;;;6.95;5.55;;;27.10;53.40;;;;;;5015799;28;20075;-63
2023/09/08 06:24:52;;;;;;;8.57;6.40;;;27.40;59.50;;;;;;5012593;28;20033;-64
2023/09/08 06:27:18;;;;;;;7.30;6.15;;;27.50;51.90;;;;;;5019779;28;20060;-64
2023/09/08 06:29:43;;;;;;;6.82;6.13;;;28.00;56.50;;;;;;5013195;28;20075;-62
2023/09/08 06:32:10;;;;;;;7.18;5.95;;;28.30;53.70;;;;;;5017792;28;20104;-82
2023/09/08 06:34:35;;;;;;;7.72;6.43;;;28.50;50.10;;;;;;5014046;28;20155;-66
2023/09/08 06:37:02;;;;;;;7.78;5.80;;;28.20;41.50;;;;;;5015496;28;20123;-62
2023/09/08 06:39:27;;;;;;;6.82;5.90;;;28.10;49.60;;;;;;5013069;28;20452;-63
2023/09/08 06:41:53;;;;;;;8.52;5.60;;;28.80;49.90;;;;;;5016908;28;20030;-63
2023/09/08 06:44:20;;;;;;;9.45;5.78;;;29.30;42.40;;;;;;5016817;28;20025;-63
2023/09/08 06:46:46;;;;;;;6.68;5.28;;;29.50;45.70;;;;;;5016959;28;20040;-63
2023/09/08 06:49:11;;;;;;;7.30;5.88;;;29.60;45.30;;;;;;5011145;28;20037;-63
2023/09/08 06:51:38;;;;;;;7.35;5.97;;;29.90;43.00;;;;;;5012658;28;20025;-63
2023/09/08 06:54:04;;;;;;;10.15;6.60;;;30.00;42.60;;;;;;5014506;28;20049;-63
2023/09/08 06:56:29;;;;;;;7.47;6.22;;;30.10;35.10;;;;;;5013835;28;20111;-63
2023/09/08 06:58:57;;;;;;;8.38;5.95;;;30.10;40.00;;;;;;5012669;28;20513;-64
2023/09/08 07:01:23;;;;;;;6.35;5.72;;;29.80;39.20;;;;;;5014970;28;20025;-64
2023/09/08 07:03:49;;;;;;;7.35;6.47;;;30.40;39.40;;;;;;5013699;28;20112;-63
2023/09/08 07:06:14;;;;;;;8.25;5.28;;;30.80;31.30;;;;;;5015113;28;20520;-64
2023/09/08 07:08:39;;;;;;;6.80;5.82;;;30.80;35.50;;;;;;5012659;28;20036;-63
2023/09/08 07:11:05;;;;;;;9.13;6.28;;;30.80;34.20;;;;;;5018860;28;20029;-63
2023/09/08 07:13:30;;;;;;;6.60;5.60;;;30.80;35.60;;;;;;5017419;28;20389;-63
2023/09/08 07:15:56;;;;;;;7.47;5.43;;;31.00;35.30;;;;;;5021106;28;20033;-63
2023/09/08 07:18:21;;;;;;;9.50;5.32;;;31.30;33.80;;;;;;5021074;28;20033;-63
2023/09/08 07:20:50;;;;;;;9.02;5.82;;;31.60;33.30;;;;;;5023090;28;20482;-63
2023/09/08 07:23:19;;;;;;;7.00;5.72;;;32.00;32.20;;;;;;5018886;28;20032;-63
2023/09/08 07:25:48;;;;;;;6.35;5.75;;;31.00;30.10;;;;;;5028343;28;20029;-63
2023/09/08 07:28:14;;;;;;;8.68;5.57;;;30.90;28.70;;;;;;5021453;28;20026;-63
2023/09/08 07:30:40;;;;;;;6.35;5.72;;;30.80;30.10;;;;;;5017231;28;20220;-63
2023/09/08 07:33:05;;;;;;;6.13;5.45;;;30.90;31.40;;;;;;5023151;28;20605;-63
2023/09/08 07:35:31;;;;;;;7.03;5.25;;;31.30;30.30;;;;;;5020144;28;20076;-63
2023/09/08 07:37:57;;;;;;;9.73;5.03;;;31.50;31.00;;;;;;5019599;28;20120;-63
2023/09/08 07:40:23;;;;;;;6.90;4.95;;;31.40;29.90;;;;;;5023466;28;20063;-62
2023/09/08 07:42:48;;;;;;;5.95;4.88;;;31.60;30.00;;;;;;5019065;28;20484;-63
2023/09/08 07:45:14;;;;;;;5.70;4.55;;;31.60;29.20;;;;;;5024301;28;20033;-63
2023/09/08 07:47:39;;;;;;;8.65;5.57;;;31.00;27.90;;;;;;5021685;28;20048;-63
2023/09/08 07:50:21;;;;;;;5.85;4.82;;;29.90;26.50;;;;;;5020641;28;20555;-63
2023/09/08 07:52:51;;;;;;;6.43;5.00;;;29.50;27.90;;;;;;5020543;28;20034;-63
2023/09/08 07:55:17;;;;;;;5.18;4.68;;;29.30;29.70;;;;;;5020610;28;20046;-63
2023/09/08 07:57:44;;;;;;;5.72;5.00;;;29.60;30.80;;;;;;5020942;28;20029;-63
2023/09/08 08:00:12;;;;;;;5.80;4.70;;;29.40;30.00;;;;;;5019834;28;20045;-63
2023/09/08 08:02:43;;;;;;;4.80;4.30;;;29.50;30.40;;;;;;5025219;28;20511;-63
2023/09/08 08:05:09;;;;;;;5.95;4.30;;;29.90;30.20;;;;;;5027277;28;20021;-62
2023/09/08 08:07:35;;;;;;;5.57;4.38;;;29.60;29.90;;;;;;5020279;28;20444;-63
2023/09/08 08:10:00;;;;;;;4.90;4.40;;;29.50;28.20;;;;;;5026602;28;20093;-63
2023/09/08 08:12:26;;;;;;;5.55;4.70;;;29.40;29.70;;;;;;5023717;28;20081;-63
2023/09/08 08:14:52;;;;;;;6.30;4.53;;;29.30;30.00;;;;;;5014763;28;20026;-63
2023/09/08 08:17:19;;;;;;;5.03;4.57;;;29.20;30.90;;;;;;5024392;28;20056;-63
2023/09/08 08:19:45;;;;;;;6.07;4.65;;;29.20;30.80;;;;;;5020171;28;20060;-63
2023/09/08 08:22:10;;;;;;;5.07;4.10;;;29.40;30.00;;;;;;5029087;28;20064;-63
2023/09/08 08:24:36;;;;;;;6.85;4.88;;;29.70;30.10;;;;;;5021775;28;20756;-63
2023/09/08 08:27:02;;;;;;;5.35;4.43;;;29.50;28.30;;;;;;5021941;28;20034;-63
2023/09/08 08:29:28;;;;;;;7.75;3.88;;;28.90;30.30;;;;;;5019994;28;20057;-63
2023/09/08 08:31:54;;;;;;;5.72;4.03;;;29.10;30.40;;;;;;5019915;28;20073;-63
2023/09/08 08:34:19;;;;;;;4.47;4.03;;;29.30;30.20;;;;;;5019850;28;20036;-63
2023/09/08 08:36:45;;;;;;;5.00;4.00;;;29.60;29.70;;;;;;5019792;28;20466;-64
2023/09/08 08:39:10;;;;;;;5.30;4.05;;;29.70;29.70;;;;;;5018945;28;20029;-62
2023/09/08 08:41:39;;;;;;;4.20;3.58;;;29.70;29.50;;;;;;5030104;28;20395;-63
2023/09/08 08:44:06;;;;;;;5.50;4.20;;;30.00;29.50;;;;;;5023533;28;20022;-63
2023/09/08 08:46:36;;;;;;;6.32;4.50;;;29.70;28.60;;;;;;5019780;28;20120;-63
2023/09/08 08:49:03;;;;;;;5.32;4.53;;;29.30;28.70;;;;;;5019868;28;20540;-63
2023/09/08 08:51:30;;;;;;;4.78;4.20;;;29.40;28.70;;;;;;5016025;28;20442;-63
2023/09/08 08:53:57;;;;;;;4.65;4.18;;;29.40;28.60;;;;;;5020633;28;20578;-64
2023/09/08 08:56:23;;;;;;;6.05;4.55;;;29.00;28.60;;;;;;5019503;28;20033;-63
2023/09/08 08:58:49;;;;;;;8.20;4.40;;;28.80;29.50;;;;;;5018584;28;20058;-64
2023/09/08 09:01:17;;;;;;;6.78;4.30;;;29.00;29.60;;;;;;5018233;28;20029;-64
2023/09/08 09:03:43;;;;;;;6.40;4.22;;;29.10;29.30;;;;;;5021769;28;20033;-63
2023/09/08 09:06:10;;;;;;;4.97;3.95;;;29.30;27.70;;;;;;5022434;28;20025;-63
2023/09/08 09:08:37;;;;;;;6.78;3.90;;;29.20;28.20;;;;;;5016400;28;20485;-63
2023/09/08 09:11:02;;;;;;;5.97;4.18;;;29.30;28.10;;;;;;5019845;28;20069;-63
2023/09/08 09:13:28;;;;;;;4.75;3.92;;;29.30;27.80;;;;;;5015583;28;20033;-60
2023/09/08 09:15:59;;;;;;;5.22;4.25;;;29.10;28.10;;;;;;5019220;28;20342;-61
2023/09/08 09:18:26;;;;;;;4.70;3.90;;;29.30;27.40;;;;;;5028137;28;20021;-60
2023/09/08 09:20:56;;;;;;;7.13;3.88;;;29.30;27.60;;;;;;5019189;28;20530;-60
2023/09/08 09:23:34;;;;;;;4.00;3.67;;;29.40;27.50;;;;;;5023391;28;20036;-60
2023/09/08 09:26:06;;;;;;;4.35;3.50;;;29.60;27.20;;;;;;5019298;28;20017;-61
2023/09/08 09:28:32;;;;;;;7.25;4.15;;;29.70;27.40;;;;;;5016802;28;20054;-61
2023/09/08 09:30:58;;;;;;;4.13;3.72;;;29.80;27.20;;;;;;5020849;28;20053;-61
2023/09/08 09:33:24;;;;;;;6.55;4.00;;;30.00;27.40;;;;;;5021383;28;20108;-61
2023/09/08 09:35:54;;;;;;;5.95;4.38;;;29.90;27.30;;;;;;5025606;28;20106;-61
2023/09/08 09:38:20;;;;;;;5.22;4.45;;;29.90;27.40;;;;;;5023384;28;20079;-61
2023/09/08 09:40:47;;;;;;;4.88;4.13;;;29.80;26.80;;;;;;5019048;28;20589;-61
2023/09/08 09:43:14;;;;;;;5.05;4.35;;;29.60;26.40;;;;;;5015055;28;20098;-61
2023/09/08 09:45:41;;;;;;;5.30;3.90;;;29.40;26.80;;;;;;5018848;28;20556;-61
2023/09/08 09:48:08;;;;;;;4.88;4.38;;;29.20;27.10;;;;;;5019064;28;20029;-61
2023/09/08 09:50:36;;;;;;;5.30;4.20;;;29.30;27.30;;;;;;5019202;28;20032;-61
2023/09/08 09:53:08;;;;;;;6.18;4.22;;;29.10;27.60;;;;;;5018768;28;20033;-61
2023/09/08 09:55:36;;;;;;;5.30;4.10;;;29.30;26.60;;;;;;5018917;28;20021;-61
2023/09/08 09:58:03;;;;;;;5.50;4.05;;;29.40;27.30;;;;;;5019132;28;20559;-61
2023/09/08 10:00:30;;;;;;;5.53;4.40;;;29.40;27.00;;;;;;5017468;28;20040;-61
2023/09/08 10:02:56;;;;;;;6.70;4.75;;;29.40;27.20;;;;;;5020801;28;20033;-61
2023/09/08 10:05:23;;;;;;;5.93;4.20;;;29.40;26.90;;;;;;5016709;28;20451;-62
2023/09/08 10:07:50;;;;;;;6.30;4.30;;;29.40;26.50;;;;;;5018678;28;20493;-61
2023/09/08 10:10:16;;;;;;;6.40;4.35;;;29.30;26.30;;;;;;5018910;28;20455;-61
2023/09/08 10:12:47;;;;;;;4.85;4.18;;;29.40;26.50;;;;;;5018696;28;20330;-61
2023/09/08 10:15:18;;;;;;;6.43;4.90;;;29.40;26.60;;;;;;5009785;28;20121;-61
2023/09/08 10:17:44;;;;;;;6.30;4.18;;;29.20;27.40;;;;;;5016987;28;20255;-62
2023/09/08 10:20:11;;;;;;;6.28;4.88;;;29.10;26.80;;;;;;5020372;28;20017;-61
2023/09/08 10:22:44;;;;;;;5.30;4.60;;;28.60;27.10;;;;;;5022747;28;20017;-61
2023/09/08 10:25:12;;;;;;;5.07;4.25;;;28.50;27.80;;;;;;5022036;28;20076;-61
2023/09/08 10:27:38;;;;;;;5.70;5.05;;;28.30;28.30;;;;;;5022223;28;20099;-61
2023/09/08 10:30:06;;;;;;;5.68;5.10;;;28.10;28.20;;;;;;5022077;28;20057;-61
2023/09/08 10:32:33;;;;;;;5.75;4.65;;;28.00;28.50;;;;;;5032515;28;20033;-61
2023/09/08 10:35:00;;;;;;;4.55;4.13;;;27.90;28.30;;;;;;5021935;28;20041;-61
2023/09/08 10:37:29;;;;;;;5.10;4.60;;;27.90;28.30;;;;;;5022255;28;23039;-61
2023/09/08 10:39:55;;;;;;;7.10;4.72;;;27.90;28.60;;;;;;5018446;28;20021;-61
2023/09/08 10:42:27;;;;;;;5.65;4.70;;;27.80;28.80;;;;;;5022633;28;20033;-61
2023/09/08 10:44:57;;;;;;;6.03;4.47;;;27.80;29.00;;;;;;5021752;28;20087;-61
2023/09/08 10:47:44;;;;;;;7.05;5.00;;;27.70;29.10;;;;;;5021656;28;20030;-61
2023/09/08 10:50:16;;;;;;;5.85;4.80;;;27.60;29.00;;;;;;5019251;28;20130;-61
2023/09/08 10:52:42;;;;;;;6.10;4.47;;;27.60;29.30;;;;;;5018508;28;20057;-61
2023/09/08 10:55:08;;;;;;;5.95;4.25;;;27.70;28.80;;;;;;5023979;28;20530;-61
2023/09/08 10:57:34;;;;;;;8.38;5.40;;;27.70;30.30;;;;;;5024448;28;20556;-61
2023/09/08 11:00:11;;;;;;;5.35;4.85;;;27.50;29.90;;;;;;5018421;28;20060;-61
2023/09/08 11:02:41;;;;;;;5.57;4.30;;;27.30;30.20;;;;;;5016024;28;20017;-61
2023/09/08 11:05:13;;;;;;;6.93;4.78;;;27.20;30.00;;;;;;5023061;28;20044;-61
2023/09/08 11:07:40;;;;;;;5.22;4.57;;;27.30;30.40;;;;;;5019809;28;20022;-61
2023/09/08 11:10:08;;;;;;;6.30;4.60;;;27.40;30.00;;;;;;5025677;28;20032;-61
2023/09/08 11:12:34;;;;;;;5.85;4.82;;;27.40;30.10;;;;;;5021676;28;20045;-63
2023/09/08 11:15:03;;;;;;;5.38;4.72;;;27.50;30.00;;;;;;5018610;28;20067;-62
2023/09/08 11:17:30;;;;;;;7.25;4.95;;;27.60;29.90;;;;;;5017461;28;20026;-62
2023/09/08 11:19:56;;;;;;;6.13;4.75;;;27.60;29.70;;;;;;5023452;28;20017;-63
2023/09/08 11:22:24;;;;;;;8.15;5.15;;;27.60;29.40;;;;;;5020624;28;20076;-62
2023/09/08 11:24:51;;;;;;;5.70;4.78;;;27.50;29.60;;;;;;5019423;28;20014;-62
2023/09/08 11:27:17;;;;;;;5.00;4.40;;;27.40;29.80;;;;;;5019221;28;20026;-63
2023/09/08 11:29:43;;;;;;;5.72;5.10;;;27.20;28.70;;;;;;5026402;28;20028;-62
2023/09/08 11:32:10;;;;;;;7.75;4.93;;;27.00;29.70;;;;;;5017250;28;20537;-62
2023/09/08 11:34:36;;;;;;;6.15;4.45;;;26.80;30.60;;;;;;5020694;28;20078;-62
2023/09/08 11:37:13;;;;;;;5.55;4.50;;;26.90;30.30;;;;;;5021079;28;20464;-63
2023/09/08 11:39:42;;;;;;;6.75;5.40;;;26.90;30.40;;;;;;5015886;28;20091;-63
2023/09/08 11:42:11;;;;;;;5.22;4.53;;;26.90;31.40;;;;;;5021977;28;20018;-63
2023/09/08 11:44:37;;;;;;;7.10;5.03;;;26.90;30.60;;;;;;5022922;28;20465;-62
2023/09/08 11:47:04;;;;;;;7.20;5.00;;;26.80;31.20;;;;;;5026713;28;20040;-63
2023/09/08 11:49:34;;;;;;;6.43;4.70;;;26.70;30.00;;;;;;5020952;28;20052;-63
2023/09/08 11:52:00;;;;;;;5.65;4.45;;;26.70;30.10;;;;;;5018256;28;20021;-62
2023/09/08 11:54:26;;;;;;;7.05;4.57;;;26.80;30.00;;;;;;5022876;28;20021;-62
2023/09/08 11:56:51;;;;;;;6.68;4.80;;;26.80;30.30;;;;;;5017392;28;20037;-60
2023/09/08 11:59:18;;;;;;;5.85;4.50;;;26.80;29.90;;;;;;5014894;28;20046;-63
2023/09/08 12:01:43;;;;;;;6.05;4.53;;;26.90;30.00;;;;;;5023077;28;20091;-62
2023/09/08 12:04:17;;;;;;;5.38;3.85;;;26.90;29.80;;;;;;5017236;28;20037;-63
2023/09/08 12:06:43;;;;;;;6.13;4.70;;;26.90;30.70;;;;;;5020307;28;20513;-62
2023/09/08 12:09:08;;;;;;;4.40;3.80;;;26.90;29.30;;;;;;5020510;28;20025;-62
2023/09/08 12:11:42;;;;;;;8.02;5.05;;;26.90;29.00;;;;;;5020386;28;20121;-63
2023/09/08 12:14:12;;;;;;;7.30;5.30;;;26.90;29.20;;;;;;5012718;28;20029;-62
2023/09/08 12:16:39;;;;;;;5.88;4.80;;;26.90;29.80;;;;;;5020740;28;20401;-62
2023/09/08 12:19:06;;;;;;;5.82;4.45;;;26.90;29.80;;;;;;5023800;28;20401;-63
2023/09/08 12:21:32;;;;;;;6.30;5.32;;;26.90;30.40;;;;;;5020084;28;20379;-62
2023/09/08 12:23:57;;;;;;;6.30;5.07;;;26.90;30.70;;;;;;5024136;28;20014;-61
2023/09/08 12:26:25;;;;;;;7.45;5.85;;;26.90;30.80;;;;;;5026082;28;20037;-62
2023/09/08 12:28:51;;;;;;;6.28;4.90;;;26.80;31.20;;;;;;5020001;28;20104;-62
2023/09/08 12:31:17;;;;;;;5.25;4.75;;;26.80;30.70;;;;;;5017754;28;20126;-62
2023/09/08 12:33:44;;;;;;;5.75;4.93;;;26.80;30.80;;;;;;5020948;28;20174;-62
2023/09/08 12:36:15;;;;;;;7.47;5.68;;;26.90;31.00;;;;;;5017553;28;20095;-64
2023/09/08 12:38:46;;;;;;;6.07;4.43;;;26.90;31.60;;;;;;5020674;28;20031;-62
2023/09/08 12:41:12;;;;;;;5.72;4.30;;;26.90;29.70;;;;;;5020890;28;20025;-58